Time;durP1;ratioP1;P1;durP2;ratioP2;P2;SDS_P1;SDS_P2;PMS_P1;PMS_P2;Temp;Humidity;BMP_temperature;BMP_pressure;BME280_temperature;BME280_humidity;BME280_pressure;Samples;Min_cycle;Max_cycle;Signal;HPM_P1;HPM_P2
2023/08/15 00:00:00;;;;;;;9.70;3.67;;;17.70;99.90;;;;;;5007098;28;20639;-66
2023/08/15 00:02:30;;;;;;;13.03;3.30;;;17.70;99.90;;;;;;4989357;28;20245;-67
2023/08/15 00:04:58;;;;;;;6.67;3.53;;;17.70;99.90;;;;;;5006694;28;20696;-67
2023/08/15 00:07:26;;;;;;;10.10;4.03;;;17.60;99.90;;;;;;5004882;28;20221;-66
2023/08/15 00:09:55;;;;;;;8.93;3.23;;;17.60;99.90;;;;;;5006836;28;20288;-65
2023/08/15 00:12:23;;;;;;;12.83;3.83;;;17.50;99.90;;;;;;5013226;28;20689;-66
2023/08/15 00:14:51;;;;;;;9.73;3.90;;;17.60;99.90;;;;;;5002717;28;20219;-66
2023/08/15 00:17:20;;;;;;;8.47;3.77;;;17.50;99.90;;;;;;5004713;28;20218;-67
2023/08/15 00:19:50;;;;;;;11.67;4.17;;;17.50;99.90;;;;;;5005990;28;20234;-67
2023/08/15 00:22:18;;;;;;;11.73;4.10;;;17.50;99.90;;;;;;5006274;28;20221;-67
2023/08/15 00:24:46;;;;;;;9.13;3.83;;;17.50;99.90;;;;;;4986567;28;20228;-66
2023/08/15 00:27:14;;;;;;;14.43;3.97;;;17.50;99.90;;;;;;5002640;28;20194;-66
2023/08/15 00:29:43;;;;;;;17.10;4.30;;;17.50;99.90;;;;;;5006677;28;20198;-67
2023/08/15 00:32:11;;;;;;;9.97;3.47;;;17.50;99.90;;;;;;5004153;28;20210;-66
2023/08/15 00:34:40;;;;;;;12.47;3.87;;;17.50;99.90;;;;;;4996861;28;20345;-67
2023/08/15 00:37:09;;;;;;;10.33;4.27;;;17.50;99.90;;;;;;5000800;28;20512;-66
2023/08/15 00:39:38;;;;;;;14.00;4.43;;;17.40;99.90;;;;;;5005051;28;20222;-66
2023/08/15 00:42:09;;;;;;;7.77;3.83;;;17.40;99.90;;;;;;5007346;28;20256;-66
2023/08/15 00:44:40;;;;;;;10.30;3.80;;;17.40;99.90;;;;;;5009956;28;20543;-66
2023/08/15 00:47:09;;;;;;;12.13;4.13;;;17.40;99.90;;;;;;5002723;28;20222;-66
2023/08/15 00:49:38;;;;;;;10.77;3.87;;;17.40;99.90;;;;;;5005945;28;20238;-67
2023/08/15 00:52:06;;;;;;;15.73;4.33;;;17.40;99.90;;;;;;4990942;28;20210;-66
2023/08/15 00:54:36;;;;;;;11.07;3.90;;;17.40;99.90;;;;;;5000462;28;20233;-67
2023/08/15 00:57:06;;;;;;;13.10;4.00;;;17.40;99.90;;;;;;5005754;28;21991;-67
2023/08/15 00:59:35;;;;;;;10.83;3.73;;;17.30;99.90;;;;;;5006160;28;20542;-68
2023/08/15 01:02:04;;;;;;;7.47;3.37;;;17.40;99.90;;;;;;5002913;28;20245;-67
2023/08/15 01:04:33;;;;;;;14.23;3.73;;;17.40;99.90;;;;;;5002400;28;20222;-67
2023/08/15 01:07:01;;;;;;;13.20;3.60;;;17.30;99.90;;;;;;5004179;28;20222;-67
2023/08/15 01:09:29;;;;;;;10.30;3.87;;;17.40;99.90;;;;;;5002551;28;20228;-67
2023/08/15 01:12:08;;;;;;;11.13;3.60;;;17.40;99.90;;;;;;5006379;28;20194;-67
2023/08/15 01:14:42;;;;;;;11.97;3.70;;;17.50;99.90;;;;;;5006350;28;20758;-68
2023/08/15 01:17:16;;;;;;;12.03;4.10;;;17.50;99.90;;;;;;4997654;28;20233;-68
2023/08/15 01:19:49;;;;;;;8.43;3.87;;;17.50;99.90;;;;;;5001891;28;20218;-67
2023/08/15 01:22:23;;;;;;;17.43;4.27;;;17.50;99.90;;;;;;5005335;28;20285;-67
2023/08/15 01:24:52;;;;;;;10.77;4.23;;;17.50;99.90;;;;;;5000426;28;20221;-67
2023/08/15 01:27:21;;;;;;;10.87;4.03;;;17.50;99.90;;;;;;5004720;28;20204;-67
2023/08/15 01:29:50;;;;;;;9.20;3.77;;;17.50;99.90;;;;;;5001533;28;20229;-67
2023/08/15 01:32:25;;;;;;;6.73;3.57;;;17.50;99.90;;;;;;5007271;28;20319;-67
2023/08/15 01:35:01;;;;;;;6.60;3.30;;;17.50;99.90;;;;;;5005537;28;20307;-67
2023/08/15 01:37:31;;;;;;;7.37;4.20;;;17.50;99.90;;;;;;4997596;28;20229;-67
2023/08/15 01:40:03;;;;;;;10.50;3.83;;;17.50;99.90;;;;;;5002518;28;20225;-67
2023/08/15 01:42:33;;;;;;;10.27;3.80;;;17.50;99.90;;;;;;5009209;28;20236;-67
2023/08/15 01:45:02;;;;;;;11.33;4.47;;;17.40;99.90;;;;;;5004059;28;20186;-67
2023/08/15 01:47:32;;;;;;;9.77;3.57;;;17.40;99.90;;;;;;5005552;28;20214;-67
2023/08/15 01:50:00;;;;;;;9.77;3.90;;;17.40;99.90;;;;;;5002495;28;20218;-67
2023/08/15 01:52:29;;;;;;;13.97;4.57;;;17.30;99.90;;;;;;5001544;28;20684;-67
2023/08/15 01:54:57;;;;;;;7.47;4.23;;;17.30;99.90;;;;;;5002776;28;20249;-67
2023/08/15 01:57:27;;;;;;;11.00;4.20;;;17.30;99.90;;;;;;5002768;28;20230;-67
2023/08/15 01:59:55;;;;;;;10.23;4.13;;;17.20;99.90;;;;;;5002270;28;20198;-68
2023/08/15 02:02:23;;;;;;;13.77;4.50;;;17.20;99.90;;;;;;5002034;28;20220;-67
2023/08/15 02:04:52;;;;;;;9.00;4.30;;;17.20;99.90;;;;;;4998339;28;20222;-67
2023/08/15 02:07:20;;;;;;;10.53;3.90;;;17.20;99.90;;;;;;4984474;28;20219;-68
2023/08/15 02:09:49;;;;;;;13.60;4.50;;;17.20;99.90;;;;;;5004128;28;20254;-67
2023/08/15 02:12:17;;;;;;;11.23;4.57;;;17.10;99.90;;;;;;5004515;28;20521;-67
2023/08/15 02:14:47;;;;;;;10.23;4.77;;;17.10;99.90;;;;;;5003237;28;20222;-67
2023/08/15 02:17:15;;;;;;;7.70;3.60;;;17.00;99.90;;;;;;5004122;28;20225;-67
2023/08/15 02:19:43;;;;;;;9.23;3.93;;;17.10;99.90;;;;;;5004535;28;20222;-67
2023/08/15 02:22:12;;;;;;;8.57;3.83;;;17.10;99.90;;;;;;5009928;28;20221;-67
2023/08/15 02:24:40;;;;;;;10.37;3.80;;;17.10;99.90;;;;;;4998930;28;20234;-67
2023/08/15 02:27:09;;;;;;;9.87;4.13;;;17.00;99.90;;;;;;5005464;28;20280;-67
2023/08/15 02:29:38;;;;;;;11.00;4.20;;;16.90;99.90;;;;;;5004069;28;20752;-67
2023/08/15 02:32:07;;;;;;;11.80;3.97;;;16.90;99.90;;;;;;5001863;28;20218;-67
2023/08/15 02:34:36;;;;;;;9.93;4.17;;;16.90;99.90;;;;;;5004499;28;20221;-67
2023/08/15 02:37:04;;;;;;;8.07;3.97;;;16.80;99.90;;;;;;5004865;28;20225;-67
2023/08/15 02:39:32;;;;;;;13.67;4.50;;;16.80;99.90;;;;;;5004077;28;20238;-67
2023/08/15 02:42:01;;;;;;;9.83;4.20;;;16.80;99.90;;;;;;5004896;28;20237;-67
2023/08/15 02:44:29;;;;;;;12.13;5.03;;;16.80;99.90;;;;;;5006449;28;20228;-67
2023/08/15 02:46:57;;;;;;;10.23;4.60;;;16.70;99.90;;;;;;5000062;28;20224;-67
2023/08/15 02:49:28;;;;;;;11.23;4.50;;;16.70;99.90;;;;;;5001910;28;20211;-68
2023/08/15 02:51:56;;;;;;;12.47;4.83;;;16.70;99.90;;;;;;5001422;28;20226;-67
2023/08/15 02:54:24;;;;;;;13.67;4.63;;;16.70;99.90;;;;;;5002616;28;20636;-67
2023/08/15 02:56:53;;;;;;;12.83;4.87;;;16.60;99.90;;;;;;4999216;28;20221;-67
2023/08/15 02:59:21;;;;;;;12.60;4.80;;;16.60;99.90;;;;;;5005814;28;21280;-67
2023/08/15 03:01:49;;;;;;;12.70;4.70;;;16.50;99.90;;;;;;5004208;28;20218;-67
2023/08/15 03:04:17;;;;;;;14.23;5.10;;;16.60;99.90;;;;;;5011246;28;20756;-67
2023/08/15 03:06:47;;;;;;;17.10;5.20;;;16.50;99.90;;;;;;5005923;28;20228;-67
2023/08/15 03:09:16;;;;;;;14.20;5.30;;;16.50;99.90;;;;;;5002783;28;20227;-67
2023/08/15 03:11:45;;;;;;;13.60;5.13;;;16.50;99.90;;;;;;5005522;28;20220;-67
2023/08/15 03:14:13;;;;;;;12.97;4.90;;;16.50;99.90;;;;;;5011419;28;20571;-68
2023/08/15 03:16:41;;;;;;;16.03;5.20;;;16.40;99.90;;;;;;5008219;28;20228;-67
2023/08/15 03:19:10;;;;;;;14.73;5.67;;;16.40;99.90;;;;;;5008527;28;20304;-67
2023/08/15 03:21:38;;;;;;;17.10;5.80;;;16.40;99.90;;;;;;4998194;28;20222;-67
2023/08/15 03:24:09;;;;;;;14.40;5.37;;;16.40;99.90;;;;;;5007792;28;21859;-67
2023/08/15 03:26:37;;;;;;;11.43;5.27;;;16.40;99.90;;;;;;4999221;28;20208;-67
2023/08/15 03:29:06;;;;;;;13.07;5.40;;;16.30;99.90;;;;;;5003398;28;20256;-68
2023/08/15 03:31:34;;;;;;;9.00;4.73;;;16.30;99.90;;;;;;5007533;28;20225;-67
2023/08/15 03:34:03;;;;;;;12.87;5.33;;;16.30;99.90;;;;;;5005109;28;20221;-67
2023/08/15 03:36:31;;;;;;;10.67;5.60;;;16.30;99.90;;;;;;5005260;28;20229;-67
2023/08/15 03:38:59;;;;;;;8.57;5.30;;;16.30;99.90;;;;;;5004851;28;20264;-68
2023/08/15 03:41:29;;;;;;;12.03;5.17;;;16.20;99.90;;;;;;4987782;28;20223;-68
2023/08/15 03:43:57;;;;;;;12.90;4.83;;;16.20;99.90;;;;;;5008242;28;20222;-68
2023/08/15 03:46:25;;;;;;;11.20;5.17;;;16.20;99.90;;;;;;5004004;28;20218;-67
2023/08/15 03:48:54;;;;;;;10.47;5.10;;;16.20;99.90;;;;;;5007703;28;20720;-67
2023/08/15 03:51:22;;;;;;;11.37;4.67;;;16.10;99.90;;;;;;5003321;28;20196;-67
2023/08/15 03:54:10;;;;;;;10.20;5.33;;;16.20;99.90;;;;;;5008181;28;20205;-67
2023/08/15 03:56:40;;;;;;;12.97;5.30;;;16.20;99.90;;;;;;5008708;28;20210;-68
2023/08/15 03:59:08;;;;;;;11.13;5.30;;;16.20;99.90;;;;;;5008387;28;20226;-67
2023/08/15 04:01:37;;;;;;;9.70;5.50;;;16.20;99.90;;;;;;5006283;28;20230;-67
2023/08/15 04:04:06;;;;;;;12.03;4.83;;;16.20;99.90;;;;;;5004049;28;20224;-67
2023/08/15 04:06:34;;;;;;;15.60;5.33;;;16.20;99.90;;;;;;5006721;28;20233;-67
2023/08/15 04:09:03;;;;;;;13.33;5.00;;;16.20;99.90;;;;;;5001540;28;20229;-66
2023/08/15 04:11:31;;;;;;;14.73;5.70;;;16.20;99.90;;;;;;5010555;28;20194;-67
2023/08/15 04:14:01;;;;;;;10.67;5.10;;;16.20;99.90;;;;;;5003655;28;20222;-67
2023/08/15 04:16:30;;;;;;;10.67;5.80;;;16.20;99.90;;;;;;5001334;28;20224;-67
2023/08/15 04:18:58;;;;;;;13.17;5.63;;;16.20;99.90;;;;;;5005037;28;20219;-67
2023/08/15 04:21:26;;;;;;;16.50;6.10;;;16.10;99.90;;;;;;5004206;28;20227;-67
2023/08/15 04:23:54;;;;;;;8.77;4.87;;;16.10;99.90;;;;;;5005346;28;20547;-67
2023/08/15 04:26:23;;;;;;;9.80;5.50;;;16.10;99.90;;;;;;5006115;28;20596;-68
2023/08/15 04:28:51;;;;;;;18.63;5.63;;;16.10;99.90;;;;;;5007133;28;20600;-68
2023/08/15 04:31:21;;;;;;;10.53;5.53;;;16.10;99.90;;;;;;5006412;28;20313;-69
2023/08/15 04:33:49;;;;;;;14.20;5.77;;;16.10;99.90;;;;;;5005231;28;20218;-67
2023/08/15 04:36:17;;;;;;;12.53;5.57;;;16.10;99.90;;;;;;4988538;28;20561;-67
2023/08/15 04:38:45;;;;;;;12.33;5.10;;;16.10;99.90;;;;;;5003985;28;20197;-67
2023/08/15 04:41:16;;;;;;;9.83;5.50;;;16.20;99.90;;;;;;5004820;28;20226;-67
2023/08/15 04:43:44;;;;;;;15.80;5.60;;;16.10;99.90;;;;;;5010695;28;20717;-67
2023/08/15 04:46:12;;;;;;;14.13;5.30;;;16.10;99.90;;;;;;5006589;28;20229;-67
2023/08/15 04:48:42;;;;;;;11.47;5.10;;;16.20;99.90;;;;;;5004477;28;20284;-67
2023/08/15 04:51:11;;;;;;;14.10;5.43;;;16.20;99.90;;;;;;5005307;28;20218;-67
2023/08/15 04:53:39;;;;;;;18.47;5.43;;;16.20;99.90;;;;;;5006197;28;20292;-67
2023/08/15 04:56:08;;;;;;;13.97;5.83;;;16.20;99.90;;;;;;5001824;28;20226;-67
2023/08/15 04:58:36;;;;;;;13.63;5.70;;;16.20;99.90;;;;;;5001193;28;20228;-68
2023/08/15 05:01:05;;;;;;;11.97;5.73;;;16.20;99.90;;;;;;5003241;28;20291;-67
2023/08/15 05:03:34;;;;;;;11.87;5.33;;;16.20;99.90;;;;;;5008623;28;20233;-67
2023/08/15 05:06:04;;;;;;;13.67;5.53;;;16.30;99.90;;;;;;5005280;28;20198;-67
2023/08/15 05:08:32;;;;;;;15.03;5.97;;;16.30;99.90;;;;;;5008769;28;20231;-67
2023/08/15 05:11:01;;;;;;;16.17;5.80;;;16.30;99.90;;;;;;5001853;28;20702;-67
2023/08/15 05:13:29;;;;;;;18.20;6.53;;;16.40;99.90;;;;;;5003112;28;20292;-67
2023/08/15 05:15:58;;;;;;;16.43;5.97;;;16.50;99.90;;;;;;4999959;28;20229;-67
2023/08/15 05:18:26;;;;;;;13.63;6.10;;;16.50;99.90;;;;;;5003831;28;20226;-67
2023/08/15 05:20:54;;;;;;;13.13;5.57;;;16.60;99.90;;;;;;5008741;28;20205;-67
2023/08/15 05:23:24;;;;;;;17.00;6.37;;;16.70;99.90;;;;;;5002525;28;20576;-67
2023/08/15 05:25:52;;;;;;;16.70;5.73;;;16.80;99.90;;;;;;5004486;28;20565;-67
2023/08/15 05:28:20;;;;;;;13.03;5.97;;;16.90;99.90;;;;;;5004342;28;20253;-67
2023/08/15 05:30:49;;;;;;;18.77;6.30;;;17.10;99.90;;;;;;5006777;28;20214;-67
2023/08/15 05:33:17;;;;;;;17.40;6.17;;;17.30;99.90;;;;;;5006036;28;20202;-67
2023/08/15 05:35:45;;;;;;;14.03;5.40;;;17.40;99.90;;;;;;5002936;28;20834;-67
2023/08/15 05:38:14;;;;;;;13.87;5.87;;;17.60;99.90;;;;;;4994149;28;20256;-67
2023/08/15 05:40:44;;;;;;;19.17;6.00;;;17.80;99.90;;;;;;5003226;28;20604;-67
2023/08/15 05:43:12;;;;;;;15.27;6.20;;;18.00;99.90;;;;;;5004012;28;20228;-67
2023/08/15 05:45:43;;;;;;;21.43;6.00;;;18.20;99.90;;;;;;4999269;28;20258;-67
2023/08/15 05:48:12;;;;;;;13.57;5.30;;;18.40;99.90;;;;;;5000414;28;20196;-67
2023/08/15 05:50:40;;;;;;;10.40;5.03;;;18.50;99.90;;;;;;4973326;28;20198;-67
2023/08/15 05:53:09;;;;;;;15.17;5.50;;;18.70;99.90;;;;;;5002892;28;20317;-66
2023/08/15 05:55:37;;;;;;;15.30;5.80;;;18.80;99.90;;;;;;4998892;28;20221;-67
2023/08/15 05:58:07;;;;;;;12.90;5.27;;;18.90;99.90;;;;;;5001909;28;20217;-66
2023/08/15 06:00:37;;;;;;;11.63;4.87;;;18.90;99.90;;;;;;5001155;28;20848;-67
2023/08/15 06:03:06;;;;;;;13.47;4.40;;;18.90;99.90;;;;;;5008757;28;20190;-66
2023/08/15 06:05:34;;;;;;;14.30;4.30;;;18.90;99.90;;;;;;5000362;28;20213;-67
2023/08/15 06:08:03;;;;;;;9.47;4.53;;;18.90;99.90;;;;;;5006099;28;20218;-67
2023/08/15 06:10:31;;;;;;;21.77;4.80;;;18.90;99.90;;;;;;4986066;28;20229;-67
2023/08/15 06:13:00;;;;;;;13.53;4.30;;;18.90;99.90;;;;;;5001898;28;20229;-66
2023/08/15 06:15:29;;;;;;;15.80;4.57;;;18.90;99.90;;;;;;5001750;28;20229;-67
2023/08/15 06:17:58;;;;;;;15.53;4.17;;;18.90;99.90;;;;;;5004012;28;20202;-67
2023/08/15 06:20:27;;;;;;;9.07;3.87;;;18.90;99.90;;;;;;5004776;28;20223;-67
2023/08/15 06:22:56;;;;;;;11.33;4.43;;;18.80;99.90;;;;;;4999902;28;20232;-67
2023/08/15 06:25:24;;;;;;;12.37;5.20;;;18.80;99.90;;;;;;5001342;28;20230;-67
2023/08/15 06:27:53;;;;;;;12.77;4.80;;;18.90;99.90;;;;;;4997081;28;20964;-67
2023/08/15 06:30:21;;;;;;;9.17;4.43;;;19.00;99.90;;;;;;5002325;28;20197;-66
2023/08/15 06:32:51;;;;;;;10.60;4.07;;;19.20;99.90;;;;;;5003124;28;20284;-67
2023/08/15 06:35:19;;;;;;;12.90;4.73;;;19.50;99.90;;;;;;5005863;28;20218;-67
2023/08/15 06:37:47;;;;;;;13.03;4.63;;;19.60;99.90;;;;;;5009225;28;20727;-67
2023/08/15 06:40:16;;;;;;;13.50;4.40;;;19.90;99.90;;;;;;5007282;28;20577;-66
2023/08/15 06:42:45;;;;;;;17.90;5.00;;;20.00;99.90;;;;;;5009160;28;20229;-67
2023/08/15 06:45:16;;;;;;;14.47;4.40;;;20.10;99.90;;;;;;5008182;28;20194;-66
2023/08/15 06:47:44;;;;;;;11.93;4.07;;;20.30;99.90;;;;;;5004958;28;20593;-66
2023/08/15 06:50:14;;;;;;;12.57;4.73;;;20.20;99.90;;;;;;5010517;28;20765;-67
2023/08/15 06:52:42;;;;;;;17.20;4.53;;;20.30;99.90;;;;;;5009285;28;20229;-67
2023/08/15 06:55:11;;;;;;;10.63;4.17;;;20.50;99.90;;;;;;5007442;28;20232;-69
2023/08/15 06:57:39;;;;;;;14.47;5.10;;;20.50;99.90;;;;;;5007546;28;20224;-67
2023/08/15 07:00:11;;;;;;;13.80;5.00;;;20.60;99.90;;;;;;5011889;28;20217;-67
2023/08/15 07:02:41;;;;;;;13.03;3.87;;;20.70;99.90;;;;;;5004694;28;20257;-67
2023/08/15 07:05:10;;;;;;;12.77;4.50;;;20.80;99.90;;;;;;5005800;28;20240;-67
2023/08/15 07:07:40;;;;;;;12.43;3.97;;;21.10;99.90;;;;;;5009111;28;20214;-67
2023/08/15 07:10:10;;;;;;;9.60;3.70;;;21.10;99.90;;;;;;4989693;28;20736;-66
2023/08/15 07:12:38;;;;;;;9.20;3.67;;;21.20;99.90;;;;;;5007701;28;20575;-67
2023/08/15 07:15:07;;;;;;;11.43;4.30;;;21.20;99.90;;;;;;5008348;28;20198;-66
2023/08/15 07:17:36;;;;;;;11.60;3.93;;;21.40;99.90;;;;;;5008507;28;20213;-67
2023/08/15 07:20:05;;;;;;;6.77;3.97;;;21.40;99.90;;;;;;5005727;28;20697;-67
2023/08/15 07:22:34;;;;;;;8.07;3.23;;;21.50;99.90;;;;;;4985110;28;20232;-67
2023/08/15 07:25:05;;;;;;;9.20;3.80;;;21.70;99.90;;;;;;5004952;28;20214;-67
2023/08/15 07:27:33;;;;;;;13.83;4.00;;;21.90;99.90;;;;;;5001877;28;20745;-66
2023/08/15 07:30:02;;;;;;;11.40;3.80;;;22.00;99.90;;;;;;4988450;28;20681;-67
2023/08/15 07:32:30;;;;;;;8.10;3.23;;;22.10;99.90;;;;;;4988801;28;20220;-67
2023/08/15 07:34:58;;;;;;;7.13;3.53;;;22.40;99.90;;;;;;5005054;28;20288;-67
2023/08/15 07:37:27;;;;;;;6.50;3.20;;;22.50;99.90;;;;;;5004844;28;20227;-68
2023/08/15 07:39:58;;;;;;;15.87;3.50;;;22.70;99.90;;;;;;5003957;28;20219;-67
2023/08/15 07:42:28;;;;;;;6.57;3.00;;;22.80;99.90;;;;;;5012707;28;20315;-67
2023/08/15 07:44:56;;;;;;;7.77;3.20;;;22.80;99.90;;;;;;5007983;28;20194;-67
2023/08/15 07:47:25;;;;;;;5.60;3.10;;;22.80;39.00;;;;;;4992315;28;20239;-67
2023/08/15 07:50:14;;;;;;;6.67;3.50;;;23.10;1.00;;;;;;5002715;28;20244;-67
2023/08/15 07:52:43;;;;;;;13.93;3.60;;;23.00;1.00;;;;;;5002096;28;20233;-67
2023/08/15 07:55:11;;;;;;;8.77;3.17;;;23.00;1.00;;;;;;5003043;28;20584;-66
2023/08/15 07:57:43;;;;;;;9.13;3.40;;;23.10;1.00;;;;;;5006748;28;20374;-66
2023/08/15 08:00:13;;;;;;;7.13;3.43;;;23.10;13.40;;;;;;5002850;28;20202;-66
2023/08/15 08:02:43;;;;;;;8.67;3.40;;;23.20;99.90;;;;;;4998448;28;20524;-66
2023/08/15 08:05:15;;;;;;;10.60;3.27;;;23.30;99.90;;;;;;5002840;28;20250;-66
2023/08/15 08:07:45;;;;;;;9.73;3.17;;;23.40;99.90;;;;;;5007861;28;20218;-67
2023/08/15 08:10:13;;;;;;;6.57;3.20;;;23.60;99.90;;;;;;4995491;28;20731;-66
2023/08/15 08:12:45;;;;;;;5.93;2.50;;;23.60;99.90;;;;;;4992092;28;20238;-66
2023/08/15 08:15:14;;;;;;;6.77;2.77;;;23.80;99.90;;;;;;4986364;28;20192;-66
2023/08/15 08:17:42;;;;;;;7.97;2.67;;;24.00;99.90;;;;;;4987120;28;20198;-66
2023/08/15 08:20:13;;;;;;;7.03;2.90;;;24.10;99.90;;;;;;4989360;28;20283;-66
2023/08/15 08:22:41;;;;;;;10.57;2.70;;;24.10;99.90;;;;;;4991172;28;20230;-66
2023/08/15 08:25:16;;;;;;;4.83;2.27;;;24.10;99.90;;;;;;4989333;28;20226;-66
2023/08/15 08:27:46;;;;;;;5.90;2.70;;;24.00;99.90;;;;;;4984968;28;20838;-66
2023/08/15 08:30:19;;;;;;;5.47;2.50;;;24.10;99.90;;;;;;4988968;28;20198;-66
2023/08/15 08:32:48;;;;;;;3.50;2.10;;;24.10;99.90;;;;;;4987544;28;20222;-66
2023/08/15 08:35:16;;;;;;;4.73;2.50;;;24.10;99.90;;;;;;4979113;28;20226;-66
2023/08/15 08:37:46;;;;;;;4.77;2.33;;;24.40;99.90;;;;;;4981159;28;20880;-66
2023/08/15 08:40:17;;;;;;;6.15;2.45;;;24.50;99.90;;;;;;4981370;28;20228;-66
2023/08/15 08:42:47;;;;;;;4.70;2.67;;;24.90;99.90;;;;;;4991603;28;20223;-66
2023/08/15 08:45:15;;;;;;;9.93;2.78;;;24.90;99.90;;;;;;4972977;28;20556;-66
2023/08/15 08:47:46;;;;;;;7.63;2.53;;;25.20;99.90;;;;;;4985882;28;20212;-66
2023/08/15 08:50:16;;;;;;;5.38;2.33;;;25.30;99.90;;;;;;4981555;28;20317;-66
2023/08/15 08:52:48;;;;;;;5.28;2.35;;;25.40;99.90;;;;;;4984699;28;20589;-66
2023/08/15 08:55:18;;;;;;;5.22;2.00;;;25.20;99.90;;;;;;4984690;28;20308;-66
2023/08/15 08:57:52;;;;;;;5.93;2.30;;;25.50;99.90;;;;;;4992813;28;20241;-66
2023/08/15 09:00:26;;;;;;;4.78;2.10;;;25.90;99.90;;;;;;4991451;28;20233;-66
2023/08/15 09:02:55;;;;;;;4.82;2.53;;;25.90;99.90;;;;;;4984573;28;20228;-66
2023/08/15 09:05:26;;;;;;;3.75;2.00;;;26.10;99.90;;;;;;4990703;28;20218;-66
2023/08/15 09:07:54;;;;;;;7.63;1.88;;;26.10;99.90;;;;;;4987760;28;20229;-66
2023/08/15 09:10:23;;;;;;;3.42;1.75;;;26.00;99.90;;;;;;4999949;28;20258;-67
2023/08/15 09:12:59;;;;;;;4.15;1.77;;;25.90;99.90;;;;;;5010682;28;20228;-66
2023/08/15 09:15:28;;;;;;;2.50;1.80;;;26.50;99.90;;;;;;5005060;28;20317;-66
2023/08/15 09:18:04;;;;;;;3.60;1.88;;;26.50;99.90;;;;;;5006502;28;20254;-66
2023/08/15 09:20:34;;;;;;;8.13;2.60;;;26.70;99.90;;;;;;5005782;28;20249;-66
2023/08/15 09:23:03;;;;;;;4.60;2.00;;;27.20;99.90;;;;;;5010634;28;20230;-66
2023/08/15 09:25:36;;;;;;;24.23;6.55;;;27.40;99.90;;;;;;5007235;28;20563;-67
2023/08/15 09:28:08;;;;;;;6.93;2.15;;;27.80;99.90;;;;;;5004355;28;20912;-67
2023/08/15 09:30:37;;;;;;;4.10;1.95;;;28.10;99.90;;;;;;5010056;28;20239;-67
2023/08/15 09:33:05;;;;;;;3.70;1.80;;;28.20;99.90;;;;;;5004777;28;20570;-66
2023/08/15 09:35:34;;;;;;;3.05;1.80;;;28.20;99.90;;;;;;5008378;28;20627;-67
2023/08/15 09:38:10;;;;;;;2.38;1.70;;;28.10;99.90;;;;;;5005261;28;20230;-68
2023/08/15 09:40:45;;;;;;;2.85;1.50;;;27.90;99.90;;;;;;5012120;28;20235;-66
2023/08/15 09:43:17;;;;;;;3.05;1.92;;;27.80;99.90;;;;;;4989880;28;20229;-66
2023/08/15 09:45:48;;;;;;;2.97;1.77;;;27.90;99.90;;;;;;5008502;28;20247;-67
2023/08/15 09:48:19;;;;;;;4.25;1.60;;;28.10;99.90;;;;;;5010827;28;20730;-67
2023/08/15 09:50:49;;;;;;;3.22;1.83;;;28.50;99.90;;;;;;5011838;28;20649;-66
2023/08/15 09:53:24;;;;;;;2.35;1.88;;;28.80;99.90;;;;;;5009167;28;20304;-66
2023/08/15 09:55:53;;;;;;;2.25;1.67;;;28.90;99.90;;;;;;5006223;28;20218;-66
2023/08/15 09:58:23;;;;;;;3.33;1.70;;;28.30;99.90;;;;;;5009245;28;20235;-65
2023/08/15 10:00:52;;;;;;;4.53;1.85;;;28.10;99.90;;;;;;5010844;28;20333;-66
2023/08/15 10:03:25;;;;;;;2.38;1.90;;;28.40;99.90;;;;;;5007374;28;20198;-66
2023/08/15 10:05:55;;;;;;;3.20;1.50;;;28.30;99.90;;;;;;5005431;28;20190;-66
2023/08/15 10:08:24;;;;;;;2.80;1.80;;;28.10;99.90;;;;;;5010024;28;20233;-66
2023/08/15 10:10:54;;;;;;;2.22;1.70;;;27.80;99.90;;;;;;5005570;28;20591;-66
2023/08/15 10:13:26;;;;;;;3.15;1.80;;;27.60;99.90;;;;;;4984059;28;20272;-66
2023/08/15 10:15:55;;;;;;;3.40;1.92;;;27.60;99.90;;;;;;5005671;28;20217;-66
2023/08/15 10:18:24;;;;;;;3.35;2.00;;;27.90;99.90;;;;;;5010323;28;20588;-67
2023/08/15 10:20:56;;;;;;;4.10;2.00;;;27.90;99.90;;;;;;5008690;28;20216;-66
2023/08/15 10:23:29;;;;;;;6.22;1.60;;;27.60;99.90;;;;;;5009516;28;20239;-67
2023/08/15 10:25:58;;;;;;;5.00;1.80;;;27.50;99.90;;;;;;5010666;28;20708;-66
2023/08/15 10:28:33;;;;;;;2.58;1.80;;;28.40;99.90;;;;;;5008280;28;20217;-66
2023/08/15 10:31:02;;;;;;;3.10;1.40;;;29.50;99.90;;;;;;5008717;28;20232;-66
2023/08/15 10:33:31;;;;;;;1.75;1.52;;;30.10;99.90;;;;;;5006308;28;20218;-66
2023/08/15 10:36:07;;;;;;;5.18;2.13;;;30.30;99.90;;;;;;5010522;28;20288;-66
2023/08/15 10:38:40;;;;;;;5.53;1.80;;;30.60;99.90;;;;;;5008962;28;20231;-67
2023/08/15 10:41:14;;;;;;;1.60;1.50;;;30.90;99.90;;;;;;5012746;28;20641;-66
2023/08/15 10:43:49;;;;;;;2.25;1.80;;;30.30;99.90;;;;;;5014858;28;20298;-66
2023/08/15 10:46:18;;;;;;;2.83;1.60;;;30.20;99.90;;;;;;5011266;28;20217;-67
2023/08/15 10:48:49;;;;;;;4.88;1.83;;;30.70;99.90;;;;;;5009267;28;20770;-66
2023/08/15 10:51:22;;;;;;;3.63;1.90;;;31.10;99.90;;;;;;5011381;28;20625;-66
2023/08/15 10:53:50;;;;;;;2.72;1.95;;;31.40;99.90;;;;;;5010728;28;20193;-67
2023/08/15 10:56:22;;;;;;;3.38;1.92;;;31.60;99.90;;;;;;5010239;28;20317;-66
2023/08/15 10:58:52;;;;;;;2.53;1.80;;;31.50;99.90;;;;;;5005469;28;20276;-66
2023/08/15 11:01:22;;;;;;;1.83;1.73;;;30.80;99.90;;;;;;5011216;28;20230;-66
2023/08/15 11:03:51;;;;;;;2.78;1.88;;;29.80;99.90;;;;;;5004431;28;20280;-66
2023/08/15 11:06:20;;;;;;;2.85;2.13;;;28.70;99.90;;;;;;5003629;28;20202;-66
2023/08/15 11:08:50;;;;;;;6.10;2.20;;;27.90;99.90;;;;;;5014370;28;20693;-66
2023/08/15 11:11:18;;;;;;;4.43;2.03;;;27.10;99.90;;;;;;5000219;28;20663;-66
2023/08/15 11:13:48;;;;;;;3.17;2.08;;;26.80;99.90;;;;;;5007727;28;20244;-66
2023/08/15 11:16:21;;;;;;;3.63;2.10;;;27.40;99.90;;;;;;5003961;28;20218;-67
2023/08/15 11:18:50;;;;;;;2.58;2.28;;;28.30;99.90;;;;;;5007911;28;20685;-64
2023/08/15 11:21:19;;;;;;;3.17;1.80;;;29.20;99.90;;;;;;5005484;28;20301;-65
2023/08/15 11:23:48;;;;;;;3.13;2.33;;;29.50;99.90;;;;;;5007561;28;20299;-66
2023/08/15 11:26:18;;;;;;;2.95;1.95;;;29.70;99.90;;;;;;5010348;28;20229;-65
2023/08/15 11:28:46;;;;;;;2.92;1.92;;;29.30;99.90;;;;;;5005019;28;20221;-65
2023/08/15 11:31:17;;;;;;;3.72;2.20;;;28.70;99.90;;;;;;4991690;28;20214;-65
2023/08/15 11:33:51;;;;;;;2.42;1.90;;;28.00;99.90;;;;;;5010933;28;20236;-65
2023/08/15 11:36:21;;;;;;;3.08;1.90;;;27.60;99.90;;;;;;5011367;28;20197;-66
2023/08/15 11:38:49;;;;;;;2.28;2.05;;;27.40;99.90;;;;;;5004812;28;20678;-65
2023/08/15 11:41:18;;;;;;;2.45;1.75;;;27.30;99.90;;;;;;5013536;28;20217;-65
2023/08/15 11:43:46;;;;;;;4.80;2.15;;;27.10;99.90;;;;;;5013548;28;20367;-65
2023/08/15 11:46:15;;;;;;;2.33;2.00;;;27.00;99.90;;;;;;4997990;28;20679;-65
2023/08/15 11:48:46;;;;;;;5.05;1.90;;;26.90;99.90;;;;;;5010364;28;20785;-66
2023/08/15 11:51:20;;;;;;;1.77;1.67;;;27.70;99.90;;;;;;5015741;28;20191;-65
2023/08/15 11:53:52;;;;;;;1.70;1.58;;;28.40;99.90;;;;;;5010925;28;20767;-66
2023/08/15 11:56:21;;;;;;;4.22;1.75;;;29.00;99.90;;;;;;5013698;28;20217;-66
2023/08/15 11:58:50;;;;;;;3.97;2.00;;;28.70;99.90;;;;;;5016630;28;20220;-66
2023/08/15 12:01:18;;;;;;;3.42;2.15;;;28.10;99.90;;;;;;5009801;28;20762;-66
2023/08/15 12:03:48;;;;;;;3.67;1.80;;;27.60;99.90;;;;;;5011367;28;20228;-66
2023/08/15 12:06:18;;;;;;;8.80;2.20;;;27.20;99.90;;;;;;5008215;28;20256;-64
2023/08/15 12:08:46;;;;;;;2.72;1.85;;;26.90;99.90;;;;;;5004320;28;20204;-64
2023/08/15 12:11:19;;;;;;;2.00;1.80;;;26.60;99.90;;;;;;5005987;28;20231;-65
2023/08/15 12:13:49;;;;;;;3.45;2.13;;;26.40;99.90;;;;;;5014984;28;20227;-64
2023/08/15 12:16:19;;;;;;;3.22;1.98;;;26.40;99.90;;;;;;5029612;28;20253;-65
2023/08/15 12:18:49;;;;;;;2.60;2.00;;;26.50;99.90;;;;;;5019132;28;20223;-65
2023/08/15 12:21:18;;;;;;;2.28;1.95;;;26.90;99.90;;;;;;5023644;28;20212;-64
2023/08/15 12:23:46;;;;;;;1.67;1.58;;;27.40;99.90;;;;;;5015414;28;20199;-64
2023/08/15 12:26:15;;;;;;;1.80;1.70;;;27.30;99.90;;;;;;5015183;28;20229;-64
2023/08/15 12:28:43;;;;;;;3.03;1.90;;;27.20;99.90;;;;;;5015112;28;20726;-65
2023/08/15 12:31:11;;;;;;;1.77;1.60;;;27.00;99.90;;;;;;5006855;28;20297;-65
2023/08/15 12:33:40;;;;;;;2.40;1.70;;;27.20;99.90;;;;;;5015368;28;20278;-65
2023/08/15 12:36:16;;;;;;;1.77;1.67;;;27.10;99.90;;;;;;5014886;28;20194;-65
2023/08/15 12:38:44;;;;;;;2.85;1.70;;;26.80;99.90;;;;;;5014304;28;20260;-63
2023/08/15 12:41:14;;;;;;;1.83;1.73;;;26.50;99.90;;;;;;5013048;28;20223;-64
2023/08/15 12:43:43;;;;;;;2.20;1.77;;;26.20;99.90;;;;;;5018918;28;20218;-62
2023/08/15 12:46:11;;;;;;;5.50;1.80;;;26.30;99.90;;;;;;5010692;28;20225;-63
2023/08/15 12:48:40;;;;;;;4.10;1.60;;;26.40;99.90;;;;;;4988236;28;20308;-63
2023/08/15 12:51:09;;;;;;;3.47;1.80;;;26.60;99.90;;;;;;5014122;28;20180;-63
2023/08/15 12:53:38;;;;;;;2.25;1.80;;;27.00;99.90;;;;;;5013678;28;20514;-63